Terminal Aerodrome Forecast
Issued by NWS

Home | Current Version | Previous Version | Text Only | Print | Product List | Glossary On
Versions: 1 2 3 4 5 6 7 8 9 10 11 12 13
572
FTUS43 KLSX 081739
TAFUIN
TAF
KUIN 081739Z 0818/0918 23011KT P6SM FEW250
     FM090700 28012G20KT P6SM -SN BKN025
     FM091400 33016G25KT P6SM SCT035=

USA.gov is the U.S. government's official web portal to all federal, state and local government web resources and services.